Bailey, Colorado
Current Conditions -  °F | °C
As of 6:09 AM on Thursday 23 Oct 2014 (Local Time) from K0CO Reporting Station
Clear Clear  
Wind Chill:   Ceiling: Unl
Heat Index: 27°   Visibility: 10mi
Dew Point: 23°   Wind: 37mph
Humidity: 86%   Direction: 300°WNW
Pressure: 30.42"   Gusts: 46mph
Location:  39.41°N, 105.47°W
Report Text: K0CO 231209Z AUTO 30032G40KT 10SM CLR M03/M05 A3042 RMK AO2
Loading
Personal Weather Stations






























Interactive Weather Map
Tropical Storm Tracking
New forecast layout! Learn more

10-Day Weather Forecast

Advertisements
Track Severe Weather on mobile